UKLR

Details ICAO UKLR (RWN)
Name RIVNE INTL
Region Ukraine
Timezone Europe/Kiev (UTC+2.0)
Plans Departing 9
Arriving 9
Stats Elevation 755 ft / 230 m (AMSL)
Location 50.603985° 26.151713°
Runways 2
Magnetic Variation 6.738° E
Sunrise 2017-12-11 06:07:59 UTC / 2017-12-11 08:07:59 Local
Sunset 2017-12-11 14:12:10 UTC / 2017-12-11 16:12:10 Local
Advertisement - Login to hide

Runways

ID Width Length Bearing (true) Bearing (mag) Surface Threshold Offset Overrun Length
05 65 ft / 20 m 2,101 ft / 640 m 56.07° 49.33° Asphalt 0 ft / 0 m 0 ft / 0 m
12 138 ft / 42 m 8,561 ft / 2,609 m 118.34° 111.60° Concrete 0 ft / 0 m 0 ft / 0 m
23 65 ft / 20 m 2,101 ft / 640 m 236.07° 229.33° Asphalt 275 ft / 84 m 0 ft / 0 m
30 138 ft / 42 m 8,561 ft / 2,609 m 298.37° 291.63° Concrete 0 ft / 0 m 0 ft / 0 m

Approach Navaids

Runway Type Ident Frequency Range Bearing (true) Bearing (mag) Slope Elevation
12 Localiser IRW 111.10 MHz 18 nm / 33 km 116.42° 109.69° - 755 ft / 230 m (AMSL)
12 Glidescope IRW 111.10 MHz 10 nm / 19 km 118.36° 111.62° 2.70° 755 ft / 230 m (AMSL)

Map

Weather


0- 5 10 15 20 25 30 35+ Temperature / ° C

Clouds and Precipitation
Forecast for 2017-12-11 12:00 UTC. Updated an hour ago

Ground ~20,000 ft ~40,000 ft Winds

METAR

UKLR 110800Z 17004MPS 140V200 CAVOK M01/M04 Q1002 NOSIG

TAF

Not found

Frequencies

Tower 123.70 MHz TWR
Warning: Do not use this data for real-world aviation or navigation. No guarantee of current accuracy is given.